<?xml version="1.0" encoding="UTF-8" standalone="no" ?>
<gpx xmlns="http://www.topografix.com/GPX/1/1" xmlns:xsi="http://www.w3.org/2001/XMLSchema-instance" xsi:schemaLocation="http://www.topografix.com/GPX/1/1 http://www.topografix.com/GPX/1/1/gpx.xsd" version="1.1" creator="VisuGPX - https://www.visugpx.com">
  <metadata>
    <name>Les ruines du château du toile</name>
    <desc><![CDATA[[url][/url]]]></desc>
  </metadata>
  <trk>
    <name><![CDATA[Les ruines du château du toile]]></name>
    <trkseg>
      <trkpt lat="45.39088" lon="4.48086">
        <ele>1045</ele>
        <time>2021-06-09T16:55:30+02:00</time>
      </trkpt>
      <trkpt lat="45.39033" lon="4.48157">
        <ele>1040</ele>
        <time>2021-06-09T16:55:35+02:00</time>
      </trkpt>
      <trkpt lat="45.38968" lon="4.4824">
        <ele>1037</ele>
        <time>2021-06-09T16:55:40+02:00</time>
      </trkpt>
      <trkpt lat="45.38992" lon="4.48294">
        <ele>1034</ele>
        <time>2021-06-09T16:55:45+02:00</time>
      </trkpt>
      <trkpt lat="45.38991" lon="4.4836">
        <ele>1031</ele>
        <time>2021-06-09T16:55:50+02:00</time>
      </trkpt>
      <trkpt lat="45.38975" lon="4.48438">
        <ele>1030</ele>
        <time>2021-06-09T16:55:55+02:00</time>
      </trkpt>
      <trkpt lat="45.3903" lon="4.48431">
        <ele>1020</ele>
        <time>2021-06-09T16:56:00+02:00</time>
      </trkpt>
      <trkpt lat="45.39096" lon="4.48402">
        <ele>1008</ele>
        <time>2021-06-09T16:56:05+02:00</time>
      </trkpt>
      <trkpt lat="45.39138" lon="4.48377">
        <ele>1002</ele>
        <time>2021-06-09T16:56:10+02:00</time>
      </trkpt>
      <trkpt lat="45.39213" lon="4.48396">
        <ele>986</ele>
        <time>2021-06-09T16:56:15+02:00</time>
      </trkpt>
      <trkpt lat="45.39264" lon="4.48388">
        <ele>980</ele>
        <time>2021-06-09T16:56:20+02:00</time>
      </trkpt>
      <trkpt lat="45.39296" lon="4.4837">
        <ele>980</ele>
        <time>2021-06-09T16:56:25+02:00</time>
      </trkpt>
      <trkpt lat="45.39321" lon="4.48372">
        <ele>975</ele>
        <time>2021-06-09T16:56:30+02:00</time>
      </trkpt>
      <trkpt lat="45.39366" lon="4.48412">
        <ele>958</ele>
        <time>2021-06-09T16:56:35+02:00</time>
      </trkpt>
      <trkpt lat="45.39441" lon="4.48441">
        <ele>942</ele>
        <time>2021-06-09T16:56:40+02:00</time>
      </trkpt>
      <trkpt lat="45.39503" lon="4.48464">
        <ele>931</ele>
        <time>2021-06-09T16:56:45+02:00</time>
      </trkpt>
      <trkpt lat="45.39541" lon="4.48453">
        <ele>924</ele>
        <time>2021-06-09T16:56:50+02:00</time>
      </trkpt>
      <trkpt lat="45.39618" lon="4.48412">
        <ele>910</ele>
        <time>2021-06-09T16:56:55+02:00</time>
      </trkpt>
      <trkpt lat="45.39646" lon="4.48425">
        <ele>899</ele>
        <time>2021-06-09T16:57:00+02:00</time>
      </trkpt>
      <trkpt lat="45.3967" lon="4.48411">
        <ele>894</ele>
        <time>2021-06-09T16:57:05+02:00</time>
      </trkpt>
      <trkpt lat="45.39721" lon="4.48459">
        <ele>879</ele>
        <time>2021-06-09T16:57:10+02:00</time>
      </trkpt>
      <trkpt lat="45.39731" lon="4.48493">
        <ele>875</ele>
        <time>2021-06-09T16:57:15+02:00</time>
      </trkpt>
      <trkpt lat="45.39741" lon="4.48683">
        <ele>846</ele>
        <time>2021-06-09T16:57:20+02:00</time>
      </trkpt>
      <trkpt lat="45.39768" lon="4.48773">
        <ele>830</ele>
        <time>2021-06-09T16:57:25+02:00</time>
      </trkpt>
      <trkpt lat="45.398" lon="4.48805">
        <ele>819</ele>
        <time>2021-06-09T16:57:30+02:00</time>
      </trkpt>
      <trkpt lat="45.39807" lon="4.48841">
        <ele>812</ele>
        <time>2021-06-09T16:57:35+02:00</time>
      </trkpt>
      <trkpt lat="45.39802" lon="4.48879">
        <ele>803</ele>
        <time>2021-06-09T16:57:40+02:00</time>
      </trkpt>
      <trkpt lat="45.39799" lon="4.48899">
        <ele>799</ele>
        <time>2021-06-09T16:57:45+02:00</time>
      </trkpt>
      <trkpt lat="45.39812" lon="4.48919">
        <ele>794</ele>
        <time>2021-06-09T16:57:50+02:00</time>
      </trkpt>
      <trkpt lat="45.3983" lon="4.4894">
        <ele>789</ele>
        <time>2021-06-09T16:57:55+02:00</time>
      </trkpt>
      <trkpt lat="45.39858" lon="4.48944">
        <ele>783</ele>
        <time>2021-06-09T16:58:00+02:00</time>
      </trkpt>
      <trkpt lat="45.39881" lon="4.48935">
        <ele>781</ele>
        <time>2021-06-09T16:58:05+02:00</time>
      </trkpt>
      <trkpt lat="45.39906" lon="4.48974">
        <ele>771</ele>
        <time>2021-06-09T16:58:10+02:00</time>
      </trkpt>
      <trkpt lat="45.39931" lon="4.49002">
        <ele>764</ele>
        <time>2021-06-09T16:58:15+02:00</time>
      </trkpt>
      <trkpt lat="45.39936" lon="4.49024">
        <ele>759</ele>
        <time>2021-06-09T16:58:20+02:00</time>
      </trkpt>
      <trkpt lat="45.3993" lon="4.49069">
        <ele>751</ele>
        <time>2021-06-09T16:58:25+02:00</time>
      </trkpt>
      <trkpt lat="45.3995" lon="4.49098">
        <ele>745</ele>
        <time>2021-06-09T16:58:30+02:00</time>
      </trkpt>
      <trkpt lat="45.3998" lon="4.49102">
        <ele>744</ele>
        <time>2021-06-09T16:58:35+02:00</time>
      </trkpt>
      <trkpt lat="45.39994" lon="4.49113">
        <ele>743</ele>
        <time>2021-06-09T16:58:40+02:00</time>
      </trkpt>
      <trkpt lat="45.39998" lon="4.49154">
        <ele>738</ele>
        <time>2021-06-09T16:58:45+02:00</time>
      </trkpt>
      <trkpt lat="45.4002" lon="4.49185">
        <ele>730</ele>
        <time>2021-06-09T16:58:50+02:00</time>
      </trkpt>
      <trkpt lat="45.40051" lon="4.49182">
        <ele>726</ele>
        <time>2021-06-09T16:58:55+02:00</time>
      </trkpt>
      <trkpt lat="45.4008" lon="4.4915">
        <ele>723</ele>
        <time>2021-06-09T16:59:00+02:00</time>
      </trkpt>
      <trkpt lat="45.40113" lon="4.49092">
        <ele>716</ele>
        <time>2021-06-09T16:59:05+02:00</time>
      </trkpt>
      <trkpt lat="45.40151" lon="4.49018">
        <ele>712</ele>
        <time>2021-06-09T16:59:10+02:00</time>
      </trkpt>
      <trkpt lat="45.4017" lon="4.48973">
        <ele>716</ele>
        <time>2021-06-09T16:59:15+02:00</time>
      </trkpt>
      <trkpt lat="45.40178" lon="4.49001">
        <ele>713</ele>
        <time>2021-06-09T16:59:20+02:00</time>
      </trkpt>
      <trkpt lat="45.40188" lon="4.49123">
        <ele>701</ele>
        <time>2021-06-09T16:59:25+02:00</time>
      </trkpt>
      <trkpt lat="45.40198" lon="4.49167">
        <ele>697</ele>
        <time>2021-06-09T16:59:30+02:00</time>
      </trkpt>
      <trkpt lat="45.40245" lon="4.49215">
        <ele>689</ele>
        <time>2021-06-09T16:59:35+02:00</time>
      </trkpt>
      <trkpt lat="45.40312" lon="4.49276">
        <ele>678</ele>
        <time>2021-06-09T16:59:40+02:00</time>
      </trkpt>
      <trkpt lat="45.4034" lon="4.49303">
        <ele>675</ele>
        <time>2021-06-09T16:59:45+02:00</time>
      </trkpt>
      <trkpt lat="45.40327" lon="4.49592">
        <ele>660</ele>
        <time>2021-06-09T16:59:50+02:00</time>
      </trkpt>
      <trkpt lat="45.40313" lon="4.49609">
        <ele>658</ele>
        <time>2021-06-09T16:59:55+02:00</time>
      </trkpt>
      <trkpt lat="45.40249" lon="4.49678">
        <ele>641</ele>
        <time>2021-06-09T17:00:00+02:00</time>
      </trkpt>
      <trkpt lat="45.40229" lon="4.49738">
        <ele>639</ele>
        <time>2021-06-09T17:00:05+02:00</time>
      </trkpt>
      <trkpt lat="45.4021" lon="4.49816">
        <ele>628</ele>
        <time>2021-06-09T17:00:10+02:00</time>
      </trkpt>
      <trkpt lat="45.40201" lon="4.49864">
        <ele>623</ele>
        <time>2021-06-09T17:00:15+02:00</time>
      </trkpt>
      <trkpt lat="45.40123" lon="4.49833">
        <ele>634</ele>
        <time>2021-06-09T17:00:20+02:00</time>
      </trkpt>
      <trkpt lat="45.40066" lon="4.49847">
        <ele>641</ele>
        <time>2021-06-09T17:00:25+02:00</time>
      </trkpt>
      <trkpt lat="45.40019" lon="4.4987">
        <ele>646</ele>
        <time>2021-06-09T17:00:30+02:00</time>
      </trkpt>
      <trkpt lat="45.39964" lon="4.49931">
        <ele>651</ele>
        <time>2021-06-09T17:00:35+02:00</time>
      </trkpt>
      <trkpt lat="45.39909" lon="4.49978">
        <ele>657</ele>
        <time>2021-06-09T17:00:40+02:00</time>
      </trkpt>
      <trkpt lat="45.39895" lon="4.49989">
        <ele>660</ele>
        <time>2021-06-09T17:00:45+02:00</time>
      </trkpt>
      <trkpt lat="45.39862" lon="4.50051">
        <ele>667</ele>
        <time>2021-06-09T17:00:50+02:00</time>
      </trkpt>
      <trkpt lat="45.39836" lon="4.50081">
        <ele>665</ele>
        <time>2021-06-09T17:00:55+02:00</time>
      </trkpt>
      <trkpt lat="45.39817" lon="4.50147">
        <ele>672</ele>
        <time>2021-06-09T17:01:00+02:00</time>
      </trkpt>
      <trkpt lat="45.39784" lon="4.50185">
        <ele>676</ele>
        <time>2021-06-09T17:01:05+02:00</time>
      </trkpt>
      <trkpt lat="45.39755" lon="4.50194">
        <ele>675</ele>
        <time>2021-06-09T17:01:10+02:00</time>
      </trkpt>
      <trkpt lat="45.39647" lon="4.50202">
        <ele>684</ele>
        <time>2021-06-09T17:01:15+02:00</time>
      </trkpt>
      <trkpt lat="45.39557" lon="4.50204">
        <ele>692</ele>
        <time>2021-06-09T17:01:20+02:00</time>
      </trkpt>
      <trkpt lat="45.39442" lon="4.50184">
        <ele>703</ele>
        <time>2021-06-09T17:01:25+02:00</time>
      </trkpt>
      <trkpt lat="45.39359" lon="4.50207">
        <ele>706</ele>
        <time>2021-06-09T17:01:30+02:00</time>
      </trkpt>
      <trkpt lat="45.39252" lon="4.5021">
        <ele>722</ele>
        <time>2021-06-09T17:01:35+02:00</time>
      </trkpt>
      <trkpt lat="45.39157" lon="4.50241">
        <ele>726</ele>
        <time>2021-06-09T17:01:40+02:00</time>
      </trkpt>
      <trkpt lat="45.39038" lon="4.50254">
        <ele>731</ele>
        <time>2021-06-09T17:01:45+02:00</time>
      </trkpt>
      <trkpt lat="45.38932" lon="4.5015">
        <ele>763</ele>
        <time>2021-06-09T17:01:50+02:00</time>
      </trkpt>
      <trkpt lat="45.38852" lon="4.50049">
        <ele>791</ele>
        <time>2021-06-09T17:01:55+02:00</time>
      </trkpt>
      <trkpt lat="45.38837" lon="4.50039">
        <ele>793</ele>
        <time>2021-06-09T17:02:00+02:00</time>
      </trkpt>
      <trkpt lat="45.38815" lon="4.50047">
        <ele>796</ele>
        <time>2021-06-09T17:02:05+02:00</time>
      </trkpt>
      <trkpt lat="45.38812" lon="4.50066">
        <ele>795</ele>
        <time>2021-06-09T17:02:10+02:00</time>
      </trkpt>
      <trkpt lat="45.38876" lon="4.50196">
        <ele>777</ele>
        <time>2021-06-09T17:02:15+02:00</time>
      </trkpt>
      <trkpt lat="45.38873" lon="4.50231">
        <ele>777</ele>
        <time>2021-06-09T17:02:20+02:00</time>
      </trkpt>
      <trkpt lat="45.3885" lon="4.50273">
        <ele>782</ele>
        <time>2021-06-09T17:02:25+02:00</time>
      </trkpt>
      <trkpt lat="45.38816" lon="4.50325">
        <ele>786</ele>
        <time>2021-06-09T17:02:30+02:00</time>
      </trkpt>
      <trkpt lat="45.38779" lon="4.50458">
        <ele>780</ele>
        <time>2021-06-09T17:02:35+02:00</time>
      </trkpt>
      <trkpt lat="45.38726" lon="4.50558">
        <ele>780</ele>
        <time>2021-06-09T17:02:40+02:00</time>
      </trkpt>
      <trkpt lat="45.38689" lon="4.5065">
        <ele>775</ele>
        <time>2021-06-09T17:02:45+02:00</time>
      </trkpt>
      <trkpt lat="45.38682" lon="4.50701">
        <ele>776</ele>
        <time>2021-06-09T17:02:50+02:00</time>
      </trkpt>
      <trkpt lat="45.3863" lon="4.50769">
        <ele>788</ele>
        <time>2021-06-09T17:02:55+02:00</time>
      </trkpt>
      <trkpt lat="45.38594" lon="4.50835">
        <ele>794</ele>
        <time>2021-06-09T17:03:00+02:00</time>
      </trkpt>
      <trkpt lat="45.38534" lon="4.50953">
        <ele>805</ele>
        <time>2021-06-09T17:03:05+02:00</time>
      </trkpt>
      <trkpt lat="45.38454" lon="4.51092">
        <ele>820</ele>
        <time>2021-06-09T17:03:10+02:00</time>
      </trkpt>
      <trkpt lat="45.38388" lon="4.51165">
        <ele>828</ele>
        <time>2021-06-09T17:03:15+02:00</time>
      </trkpt>
      <trkpt lat="45.38357" lon="4.51191">
        <ele>833</ele>
        <time>2021-06-09T17:03:20+02:00</time>
      </trkpt>
      <trkpt lat="45.38321" lon="4.51222">
        <ele>838</ele>
        <time>2021-06-09T17:03:25+02:00</time>
      </trkpt>
      <trkpt lat="45.38286" lon="4.51228">
        <ele>840</ele>
        <time>2021-06-09T17:03:30+02:00</time>
      </trkpt>
      <trkpt lat="45.38269" lon="4.51241">
        <ele>841</ele>
        <time>2021-06-09T17:03:35+02:00</time>
      </trkpt>
      <trkpt lat="45.38259" lon="4.51268">
        <ele>843</ele>
        <time>2021-06-09T17:03:40+02:00</time>
      </trkpt>
      <trkpt lat="45.3822" lon="4.5132">
        <ele>855</ele>
        <time>2021-06-09T17:03:45+02:00</time>
      </trkpt>
      <trkpt lat="45.3819" lon="4.51419">
        <ele>864</ele>
        <time>2021-06-09T17:03:50+02:00</time>
      </trkpt>
      <trkpt lat="45.38167" lon="4.51463">
        <ele>865</ele>
        <time>2021-06-09T17:03:55+02:00</time>
      </trkpt>
      <trkpt lat="45.38147" lon="4.51537">
        <ele>874</ele>
        <time>2021-06-09T17:04:00+02:00</time>
      </trkpt>
      <trkpt lat="45.38116" lon="4.51578">
        <ele>877</ele>
        <time>2021-06-09T17:04:05+02:00</time>
      </trkpt>
      <trkpt lat="45.38073" lon="4.51608">
        <ele>880</ele>
        <time>2021-06-09T17:04:10+02:00</time>
      </trkpt>
      <trkpt lat="45.38005" lon="4.51649">
        <ele>888</ele>
        <time>2021-06-09T17:04:15+02:00</time>
      </trkpt>
      <trkpt lat="45.37957" lon="4.51713">
        <ele>899</ele>
        <time>2021-06-09T17:04:20+02:00</time>
      </trkpt>
      <trkpt lat="45.3791" lon="4.51775">
        <ele>903</ele>
        <time>2021-06-09T17:04:25+02:00</time>
      </trkpt>
      <trkpt lat="45.3797" lon="4.51734">
        <ele>900</ele>
        <time>2021-06-09T17:04:30+02:00</time>
      </trkpt>
      <trkpt lat="45.38017" lon="4.5169">
        <ele>892</ele>
        <time>2021-06-09T17:04:35+02:00</time>
      </trkpt>
      <trkpt lat="45.38072" lon="4.51716">
        <ele>901</ele>
        <time>2021-06-09T17:04:40+02:00</time>
      </trkpt>
      <trkpt lat="45.38106" lon="4.51759">
        <ele>915</ele>
        <time>2021-06-09T17:04:45+02:00</time>
      </trkpt>
      <trkpt lat="45.38134" lon="4.5175">
        <ele>916</ele>
        <time>2021-06-09T17:04:50+02:00</time>
      </trkpt>
      <trkpt lat="45.38167" lon="4.51717">
        <ele>913</ele>
        <time>2021-06-09T17:04:55+02:00</time>
      </trkpt>
      <trkpt lat="45.38214" lon="4.51674">
        <ele>918</ele>
        <time>2021-06-09T17:05:00+02:00</time>
      </trkpt>
      <trkpt lat="45.38166" lon="4.51789">
        <ele>929</ele>
        <time>2021-06-09T17:05:05+02:00</time>
      </trkpt>
      <trkpt lat="45.38124" lon="4.51865">
        <ele>945</ele>
        <time>2021-06-09T17:05:10+02:00</time>
      </trkpt>
      <trkpt lat="45.38091" lon="4.51884">
        <ele>947</ele>
        <time>2021-06-09T17:05:15+02:00</time>
      </trkpt>
      <trkpt lat="45.38047" lon="4.51861">
        <ele>942</ele>
        <time>2021-06-09T17:05:20+02:00</time>
      </trkpt>
      <trkpt lat="45.38003" lon="4.51884">
        <ele>952</ele>
        <time>2021-06-09T17:05:25+02:00</time>
      </trkpt>
      <trkpt lat="45.37961" lon="4.5196">
        <ele>963</ele>
        <time>2021-06-09T17:05:30+02:00</time>
      </trkpt>
      <trkpt lat="45.37961" lon="4.51974">
        <ele>966</ele>
        <time>2021-06-09T17:05:35+02:00</time>
      </trkpt>
      <trkpt lat="45.38" lon="4.51963">
        <ele>975</ele>
        <time>2021-06-09T17:05:40+02:00</time>
      </trkpt>
      <trkpt lat="45.38016" lon="4.51984">
        <ele>978</ele>
        <time>2021-06-09T17:05:45+02:00</time>
      </trkpt>
      <trkpt lat="45.38007" lon="4.52007">
        <ele>984</ele>
        <time>2021-06-09T17:05:50+02:00</time>
      </trkpt>
      <trkpt lat="45.37999" lon="4.52033">
        <ele>988</ele>
        <time>2021-06-09T17:05:55+02:00</time>
      </trkpt>
      <trkpt lat="45.38034" lon="4.52111">
        <ele>1003</ele>
        <time>2021-06-09T17:06:00+02:00</time>
      </trkpt>
      <trkpt lat="45.38012" lon="4.52123">
        <ele>1003</ele>
        <time>2021-06-09T17:06:05+02:00</time>
      </trkpt>
      <trkpt lat="45.37999" lon="4.52136">
        <ele>1003</ele>
        <time>2021-06-09T17:06:10+02:00</time>
      </trkpt>
      <trkpt lat="45.38008" lon="4.52243">
        <ele>1019</ele>
        <time>2021-06-09T17:06:15+02:00</time>
      </trkpt>
      <trkpt lat="45.38022" lon="4.52221">
        <ele>1019</ele>
        <time>2021-06-09T17:06:20+02:00</time>
      </trkpt>
      <trkpt lat="45.38055" lon="4.52206">
        <ele>1024</ele>
        <time>2021-06-09T17:06:25+02:00</time>
      </trkpt>
      <trkpt lat="45.3809" lon="4.52209">
        <ele>1031</ele>
        <time>2021-06-09T17:06:30+02:00</time>
      </trkpt>
      <trkpt lat="45.38133" lon="4.52195">
        <ele>1036</ele>
        <time>2021-06-09T17:06:35+02:00</time>
      </trkpt>
      <trkpt lat="45.38211" lon="4.52144">
        <ele>1040</ele>
        <time>2021-06-09T17:06:40+02:00</time>
      </trkpt>
      <trkpt lat="45.38272" lon="4.52101">
        <ele>1046</ele>
        <time>2021-06-09T17:06:45+02:00</time>
      </trkpt>
      <trkpt lat="45.3833" lon="4.52053">
        <ele>1050</ele>
        <time>2021-06-09T17:06:50+02:00</time>
      </trkpt>
      <trkpt lat="45.38352" lon="4.5202">
        <ele>1050</ele>
        <time>2021-06-09T17:06:55+02:00</time>
      </trkpt>
      <trkpt lat="45.38369" lon="4.52019">
        <ele>1057</ele>
        <time>2021-06-09T17:07:00+02:00</time>
      </trkpt>
      <trkpt lat="45.38311" lon="4.52133">
        <ele>1056.1</ele>
        <time>2021-06-09T17:07:05+02:00</time>
      </trkpt>
      <trkpt lat="45.38246" lon="4.52287">
        <ele>1087</ele>
        <time>2021-06-09T17:07:10+02:00</time>
      </trkpt>
      <trkpt lat="45.38207" lon="4.52334">
        <ele>1089</ele>
        <time>2021-06-09T17:07:15+02:00</time>
      </trkpt>
      <trkpt lat="45.38155" lon="4.52431">
        <ele>1096</ele>
        <time>2021-06-09T17:07:20+02:00</time>
      </trkpt>
      <trkpt lat="45.38097" lon="4.52521">
        <ele>1096</ele>
        <time>2021-06-09T17:07:25+02:00</time>
      </trkpt>
      <trkpt lat="45.38085" lon="4.52591">
        <ele>1107</ele>
        <time>2021-06-09T17:07:30+02:00</time>
      </trkpt>
      <trkpt lat="45.38062" lon="4.52643">
        <ele>1106</ele>
        <time>2021-06-09T17:07:35+02:00</time>
      </trkpt>
      <trkpt lat="45.38049" lon="4.52819">
        <ele>1110</ele>
        <time>2021-06-09T17:07:40+02:00</time>
      </trkpt>
      <trkpt lat="45.38038" lon="4.52734">
        <ele>1107</ele>
        <time>2021-06-09T17:07:45+02:00</time>
      </trkpt>
      <trkpt lat="45.38012" lon="4.52726">
        <ele>1101</ele>
        <time>2021-06-09T17:07:50+02:00</time>
      </trkpt>
      <trkpt lat="45.37993" lon="4.52725">
        <ele>1098</ele>
        <time>2021-06-09T17:07:55+02:00</time>
      </trkpt>
      <trkpt lat="45.37959" lon="4.5269">
        <ele>1089</ele>
        <time>2021-06-09T17:08:00+02:00</time>
      </trkpt>
      <trkpt lat="45.37848" lon="4.52625">
        <ele>1070</ele>
        <time>2021-06-09T17:08:05+02:00</time>
      </trkpt>
      <trkpt lat="45.37786" lon="4.52563">
        <ele>1064</ele>
        <time>2021-06-09T17:08:10+02:00</time>
      </trkpt>
      <trkpt lat="45.37755" lon="4.52445">
        <ele>1055</ele>
        <time>2021-06-09T17:08:15+02:00</time>
      </trkpt>
      <trkpt lat="45.37739" lon="4.5241">
        <ele>1054</ele>
        <time>2021-06-09T17:08:20+02:00</time>
      </trkpt>
      <trkpt lat="45.37645" lon="4.52346">
        <ele>1046</ele>
        <time>2021-06-09T17:08:25+02:00</time>
      </trkpt>
      <trkpt lat="45.37583" lon="4.52362">
        <ele>1053</ele>
        <time>2021-06-09T17:08:30+02:00</time>
      </trkpt>
      <trkpt lat="45.37527" lon="4.52364">
        <ele>1056</ele>
        <time>2021-06-09T17:08:35+02:00</time>
      </trkpt>
      <trkpt lat="45.37423" lon="4.52352">
        <ele>1067</ele>
        <time>2021-06-09T17:08:40+02:00</time>
      </trkpt>
      <trkpt lat="45.3735" lon="4.52314">
        <ele>1066</ele>
        <time>2021-06-09T17:08:45+02:00</time>
      </trkpt>
      <trkpt lat="45.37315" lon="4.52305">
        <ele>1068</ele>
        <time>2021-06-09T17:08:50+02:00</time>
      </trkpt>
      <trkpt lat="45.3724" lon="4.52377">
        <ele>1089</ele>
        <time>2021-06-09T17:08:55+02:00</time>
      </trkpt>
      <trkpt lat="45.37204" lon="4.52394">
        <ele>1097</ele>
        <time>2021-06-09T17:09:00+02:00</time>
      </trkpt>
      <trkpt lat="45.37177" lon="4.5238">
        <ele>1098</ele>
        <time>2021-06-09T17:09:05+02:00</time>
      </trkpt>
      <trkpt lat="45.37171" lon="4.5235">
        <ele>1096</ele>
        <time>2021-06-09T17:09:10+02:00</time>
      </trkpt>
      <trkpt lat="45.37194" lon="4.52247">
        <ele>1094</ele>
        <time>2021-06-09T17:09:15+02:00</time>
      </trkpt>
      <trkpt lat="45.37199" lon="4.52153">
        <ele>1098</ele>
        <time>2021-06-09T17:09:20+02:00</time>
      </trkpt>
      <trkpt lat="45.37192" lon="4.52108">
        <ele>1103</ele>
        <time>2021-06-09T17:09:25+02:00</time>
      </trkpt>
      <trkpt lat="45.37173" lon="4.52044">
        <ele>1109</ele>
        <time>2021-06-09T17:09:30+02:00</time>
      </trkpt>
      <trkpt lat="45.37124" lon="4.5199">
        <ele>1120</ele>
        <time>2021-06-09T17:09:35+02:00</time>
      </trkpt>
      <trkpt lat="45.37041" lon="4.51902">
        <ele>1131</ele>
        <time>2021-06-09T17:09:40+02:00</time>
      </trkpt>
      <trkpt lat="45.37023" lon="4.51874">
        <ele>1136</ele>
        <time>2021-06-09T17:09:45+02:00</time>
      </trkpt>
      <trkpt lat="45.37022" lon="4.51849">
        <ele>1136</ele>
        <time>2021-06-09T17:09:50+02:00</time>
      </trkpt>
      <trkpt lat="45.37039" lon="4.51797">
        <ele>1134</ele>
        <time>2021-06-09T17:09:55+02:00</time>
      </trkpt>
      <trkpt lat="45.37049" lon="4.51606">
        <ele>1152</ele>
        <time>2021-06-09T17:10:00+02:00</time>
      </trkpt>
      <trkpt lat="45.37077" lon="4.5145">
        <ele>1163</ele>
        <time>2021-06-09T17:10:05+02:00</time>
      </trkpt>
      <trkpt lat="45.37085" lon="4.51304">
        <ele>1165</ele>
        <time>2021-06-09T17:10:10+02:00</time>
      </trkpt>
      <trkpt lat="45.37077" lon="4.51282">
        <ele>1165</ele>
        <time>2021-06-09T17:10:15+02:00</time>
      </trkpt>
      <trkpt lat="45.3714" lon="4.51193">
        <ele>1169</ele>
        <time>2021-06-09T17:10:20+02:00</time>
      </trkpt>
      <trkpt lat="45.37173" lon="4.51126">
        <ele>1173</ele>
        <time>2021-06-09T17:10:25+02:00</time>
      </trkpt>
      <trkpt lat="45.37189" lon="4.51049">
        <ele>1176</ele>
        <time>2021-06-09T17:10:30+02:00</time>
      </trkpt>
      <trkpt lat="45.37204" lon="4.50906">
        <ele>1183</ele>
        <time>2021-06-09T17:10:35+02:00</time>
      </trkpt>
      <trkpt lat="45.37192" lon="4.50796">
        <ele>1185</ele>
        <time>2021-06-09T17:10:40+02:00</time>
      </trkpt>
      <trkpt lat="45.37206" lon="4.50698">
        <ele>1184</ele>
        <time>2021-06-09T17:10:45+02:00</time>
      </trkpt>
      <trkpt lat="45.37243" lon="4.50584">
        <ele>1177</ele>
        <time>2021-06-09T17:10:50+02:00</time>
      </trkpt>
      <trkpt lat="45.37339" lon="4.50413">
        <ele>1167</ele>
        <time>2021-06-09T17:10:55+02:00</time>
      </trkpt>
      <trkpt lat="45.37375" lon="4.50357">
        <ele>1166</ele>
        <time>2021-06-09T17:11:00+02:00</time>
      </trkpt>
      <trkpt lat="45.37375" lon="4.50322">
        <ele>1164</ele>
        <time>2021-06-09T17:11:05+02:00</time>
      </trkpt>
      <trkpt lat="45.37396" lon="4.5032">
        <ele>1166</ele>
        <time>2021-06-09T17:11:10+02:00</time>
      </trkpt>
      <trkpt lat="45.37424" lon="4.50303">
        <ele>1167</ele>
        <time>2021-06-09T17:11:15+02:00</time>
      </trkpt>
      <trkpt lat="45.37502" lon="4.50148">
        <ele>1161</ele>
        <time>2021-06-09T17:11:20+02:00</time>
      </trkpt>
      <trkpt lat="45.37624" lon="4.4995">
        <ele>1154</ele>
        <time>2021-06-09T17:11:25+02:00</time>
      </trkpt>
      <trkpt lat="45.37639" lon="4.49908">
        <ele>1152</ele>
        <time>2021-06-09T17:11:30+02:00</time>
      </trkpt>
      <trkpt lat="45.37675" lon="4.49715">
        <ele>1140</ele>
        <time>2021-06-09T17:11:35+02:00</time>
      </trkpt>
      <trkpt lat="45.37703" lon="4.49654">
        <ele>1137</ele>
        <time>2021-06-09T17:11:40+02:00</time>
      </trkpt>
      <trkpt lat="45.37721" lon="4.49598">
        <ele>1135</ele>
        <time>2021-06-09T17:11:45+02:00</time>
      </trkpt>
      <trkpt lat="45.3779" lon="4.49498">
        <ele>1129</ele>
        <time>2021-06-09T17:11:50+02:00</time>
      </trkpt>
      <trkpt lat="45.37853" lon="4.49418">
        <ele>1126</ele>
        <time>2021-06-09T17:11:55+02:00</time>
      </trkpt>
      <trkpt lat="45.38028" lon="4.49185">
        <ele>1105</ele>
        <time>2021-06-09T17:12:00+02:00</time>
      </trkpt>
      <trkpt lat="45.38167" lon="4.49111">
        <ele>1097</ele>
        <time>2021-06-09T17:12:05+02:00</time>
      </trkpt>
      <trkpt lat="45.38262" lon="4.49038">
        <ele>1090</ele>
        <time>2021-06-09T17:12:10+02:00</time>
      </trkpt>
      <trkpt lat="45.38342" lon="4.48975">
        <ele>1088</ele>
        <time>2021-06-09T17:12:15+02:00</time>
      </trkpt>
      <trkpt lat="45.38421" lon="4.48872">
        <ele>1089</ele>
        <time>2021-06-09T17:12:20+02:00</time>
      </trkpt>
      <trkpt lat="45.38445" lon="4.4885">
        <ele>1086</ele>
        <time>2021-06-09T17:12:25+02:00</time>
      </trkpt>
      <trkpt lat="45.38485" lon="4.48754">
        <ele>1088</ele>
        <time>2021-06-09T17:12:30+02:00</time>
      </trkpt>
      <trkpt lat="45.38552" lon="4.48653">
        <ele>1094</ele>
        <time>2021-06-09T17:12:35+02:00</time>
      </trkpt>
      <trkpt lat="45.38589" lon="4.48622">
        <ele>1092</ele>
        <time>2021-06-09T17:12:40+02:00</time>
      </trkpt>
      <trkpt lat="45.38633" lon="4.4856">
        <ele>1084</ele>
        <time>2021-06-09T17:12:45+02:00</time>
      </trkpt>
      <trkpt lat="45.38649" lon="4.4852">
        <ele>1078</ele>
        <time>2021-06-09T17:12:50+02:00</time>
      </trkpt>
      <trkpt lat="45.38764" lon="4.48431">
        <ele>1055</ele>
        <time>2021-06-09T17:12:55+02:00</time>
      </trkpt>
      <trkpt lat="45.38816" lon="4.48395">
        <ele>1046</ele>
        <time>2021-06-09T17:13:00+02:00</time>
      </trkpt>
      <trkpt lat="45.3884" lon="4.48389">
        <ele>1043</ele>
        <time>2021-06-09T17:13:05+02:00</time>
      </trkpt>
      <trkpt lat="45.38876" lon="4.48355">
        <ele>1040</ele>
        <time>2021-06-09T17:13:10+02:00</time>
      </trkpt>
      <trkpt lat="45.38929" lon="4.48292">
        <ele>1037</ele>
        <time>2021-06-09T17:13:15+02:00</time>
      </trkpt>
      <trkpt lat="45.38972" lon="4.48235">
        <ele>1038</ele>
        <time>2021-06-09T17:13:20+02:00</time>
      </trkpt>
      <trkpt lat="45.39089" lon="4.48081">
        <ele>1045</ele>
        <time>2021-06-09T17:13:25+02:00</time>
      </trkpt>
      <trkpt lat="45.3909" lon="4.48081">
        <ele>1045</ele>
        <time>2021-06-09T17:13:30+02:00</time>
      </trkpt>
    </trkseg>
  </trk>
</gpx>